Justin — WDF2424 — position and weather

sailwx.info

Track history (hours):
 
Tides and Currents Weather Stations Pressure Air Temp Water Temp Dewpoint Dewpoint Depression Visibility Wind Speed Wind Dir Waves Ship Positions

Justin

Owner: Enterprise Marine Services, LLC, San Antonio, TX. More information available from US FCC via Universal Licensing System and Coast Guard Vessel Documentation Center.

Last reported at 2018-Jun-18 15:54 UTC. Time now 2018-Jun-22 01:55 UTC.
Position N 31°50' W 080°53'.

; draft 3 m.

Type: Towing. MMSI: 367003470.

Date/timePositionNaut miles runAvg speedWind from/ knotsBaromVisibWave heightAir tempDewpointWater temp
2018-Jun-18 15:54N 31°50' W 080°53'5 5.0
2018-Jun-18 14:54N 31°54' W 080°49'3 5.2
2018-Jun-18 14:20N 31°56' W 080°46'2 5.0
2018-Jun-18 13:59N 31°57' W 080°45'4 5.9
2018-Jun-18 13:14N 31°60' W 080°41'  
2018-Jun-13 23:58N 36°51' W 076°19'2 3.4
2018-Jun-13 23:29N 36°51' W 076°17'1 2.0
2018-Jun-13 22:58N 36°50' W 076°16'0 0.3
2018-Jun-13 21:57N 36°50' W 076°16'  
2018-Jun-10 05:49N 36°51' W 076°18'1 1.8
2018-Jun-10 05:30N 36°51' W 076°17'0 0.0
2018-Jun-10 04:57N 36°51' W 076°17'0 0.0
2018-Jun-10 04:28N 36°51' W 076°17'0 0.0
2018-Jun-10 03:59N 36°51' W 076°17'0 0.0
2018-Jun-10 03:30N 36°51' W 076°17'0 0.0
2018-Jun-10 02:59N 36°51' W 076°17'1 1.9
2018-Jun-10 02:30N 36°50' W 076°16'1 1.9
2018-Jun-10 02:00N 36°51' W 076°18'0 0.3
2018-Jun-10 01:30N 36°51' W 076°18'0 0.2
2018-Jun-10 01:00N 36°51' W 076°18'1 2.3
2018-Jun-10 00:30N 36°50' W 076°16'0 0.0
2018-Jun-10 00:00N 36°50' W 076°16'2 4.6
2018-Jun-09 23:30N 36°52' W 076°19'  
Track history (hours):
 
Tides and Currents Weather Stations Pressure Air Temp Water Temp Dewpoint Dewpoint Depression Visibility Wind Speed Wind Dir Waves Ship Positions

Justin

Owner: Enterprise Marine Services, LLC, San Antonio, TX. More information available from US FCC via Universal Licensing System and Coast Guard Vessel Documentation Center.

Last reported at 2018-Jun-18 15:54 UTC. Time now 2018-Jun-22 01:55 UTC.
Position N 31°50' W 080°53'.

; draft 3 m.

Type: Towing. MMSI: 367003470.

Date/timePositionNaut miles runAvg speedWind from/ knotsBaromVisibWave heightAir tempDewpointWater temp
2018-Jun-18 15:54N 31°50' W 080°53'5 5.0
2018-Jun-18 14:54N 31°54' W 080°49'3 5.2
2018-Jun-18 14:20N 31°56' W 080°46'2 5.0
2018-Jun-18 13:59N 31°57' W 080°45'4 5.9
2018-Jun-18 13:14N 31°60' W 080°41'  
2018-Jun-13 23:58N 36°51' W 076°19'2 3.4
2018-Jun-13 23:29N 36°51' W 076°17'1 2.0
2018-Jun-13 22:58N 36°50' W 076°16'0 0.3
2018-Jun-13 21:57N 36°50' W 076°16'  
2018-Jun-10 05:49N 36°51' W 076°18'1 1.8
2018-Jun-10 05:30N 36°51' W 076°17'0 0.0
2018-Jun-10 04:57N 36°51' W 076°17'0 0.0
2018-Jun-10 04:28N 36°51' W 076°17'0 0.0
2018-Jun-10 03:59N 36°51' W 076°17'0 0.0
2018-Jun-10 03:30N 36°51' W 076°17'0 0.0
2018-Jun-10 02:59N 36°51' W 076°17'1 1.9
2018-Jun-10 02:30N 36°50' W 076°16'1 1.9
2018-Jun-10 02:00N 36°51' W 076°18'0 0.3
2018-Jun-10 01:30N 36°51' W 076°18'0 0.2
2018-Jun-10 01:00N 36°51' W 076°18'1 2.3
2018-Jun-10 00:30N 36°50' W 076°16'0 0.0
2018-Jun-10 00:00N 36°50' W 076°16'2 4.6
2018-Jun-09 23:30N 36°52' W 076°19'  

Dump ship's entire track history